createdAt,value
2023-04-14T00:02:13.550Z,3.22
2023-04-14T00:04:41.150Z,3.17
2023-04-14T00:07:08.826Z,3.15
2023-04-14T00:09:35.933Z,3.47
2023-04-14T00:12:03.121Z,3.60
2023-04-14T00:14:30.773Z,3.65
2023-04-14T00:16:58.024Z,4.00
2023-04-14T00:19:25.238Z,3.10
2023-04-14T00:21:52.932Z,3.53
2023-04-14T00:24:20.073Z,3.03
2023-04-14T00:26:47.205Z,2.35
2023-04-14T00:29:14.374Z,2.83
2023-04-14T00:31:41.596Z,2.75
2023-04-14T00:34:08.808Z,2.42
2023-04-14T00:36:37.079Z,2.50
2023-04-14T00:39:05.281Z,2.95
2023-04-14T00:41:35.610Z,2.70
2023-04-14T00:44:03.144Z,2.38
2023-04-14T00:46:30.502Z,2.28
2023-04-14T00:48:58.125Z,2.65
2023-04-14T00:51:27.643Z,2.30
2023-04-14T00:53:56.268Z,2.40
2023-04-14T00:56:26.665Z,2.28
2023-04-14T00:58:54.279Z,2.13
2023-04-14T01:01:21.659Z,2.25
2023-04-14T01:03:49.028Z,1.98
2023-04-14T01:06:16.582Z,2.10
2023-04-14T01:08:43.824Z,1.83
2023-04-14T01:11:22.635Z,2.10
2023-04-14T01:14:10.589Z,1.70
2023-04-14T01:16:43.184Z,1.63
2023-04-14T01:19:47.630Z,2.00
2023-04-14T01:22:18.790Z,1.55
2023-04-14T01:25:09.502Z,1.42
2023-04-14T01:27:53.445Z,1.88
2023-04-14T01:30:33.548Z,1.73
2023-04-14T01:33:06.066Z,1.70
2023-04-14T01:35:55.751Z,1.73
2023-04-14T01:38:27.629Z,1.70
2023-04-14T01:40:59.633Z,1.80
2023-04-14T01:43:29.158Z,1.35
2023-04-14T01:46:00.951Z,1.70
2023-04-14T01:48:28.738Z,1.33
2023-04-14T01:50:56.910Z,1.20
2023-04-14T01:53:26.128Z,1.35
2023-04-14T01:55:54.832Z,1.42
2023-04-14T01:58:23.687Z,1.50
2023-04-14T02:00:53.452Z,1.15
2023-04-14T02:03:23.828Z,1.23
2023-04-14T02:05:54.395Z,1.20
2023-04-14T02:08:24.039Z,0.98
2023-04-14T02:10:54.014Z,1.30
2023-04-14T02:13:23.239Z,1.33
2023-04-14T02:15:52.387Z,1.40
2023-04-14T02:18:22.409Z,1.50
2023-04-14T02:20:52.865Z,1.30
2023-04-14T02:23:20.090Z,1.20
2023-04-14T02:25:55.679Z,1.40
2023-04-14T02:28:29.221Z,1.50
2023-04-14T02:30:59.590Z,1.48
2023-04-14T02:33:34.768Z,1.23
2023-04-14T02:36:18.616Z,1.65
2023-04-14T02:38:55.725Z,1.50
2023-04-14T02:41:29.042Z,1.80
2023-04-14T02:44:16.184Z,1.80
2023-04-14T02:47:07.884Z,1.60
2023-04-14T02:49:42.823Z,1.60
2023-04-14T02:52:14.990Z,1.40
2023-04-14T02:54:43.822Z,1.42
2023-04-14T02:57:12.259Z,1.67
2023-04-14T02:59:42.584Z,1.35
2023-04-14T03:02:11.894Z,1.20
2023-04-14T03:04:41.814Z,1.40
2023-04-14T03:07:11.892Z,1.63
2023-04-14T03:09:40.826Z,1.30
2023-04-14T03:12:13.205Z,1.40
2023-04-14T03:14:43.355Z,1.40
2023-04-14T03:17:15.012Z,1.48
2023-04-14T03:19:44.301Z,1.40
2023-04-14T03:22:12.801Z,1.60
2023-04-14T03:24:42.392Z,1.50
2023-04-14T03:27:16.917Z,1.45
2023-04-14T03:29:49.179Z,1.65
2023-04-14T03:32:19.994Z,1.40
2023-04-14T03:34:56.798Z,1.52
2023-04-14T03:37:27.607Z,1.35
2023-04-14T03:40:00.814Z,1.48
2023-04-14T03:42:31.779Z,1.50
2023-04-14T03:45:00.788Z,1.45
2023-04-14T03:47:31.869Z,1.30
2023-04-14T03:50:01.655Z,1.98
2023-04-14T03:52:37.099Z,1.70
2023-04-14T03:55:07.408Z,1.75
2023-04-14T03:57:35.314Z,1.40
2023-04-14T04:00:05.427Z,1.77
2023-04-14T04:02:33.484Z,1.23
2023-04-14T04:05:01.953Z,1.50
2023-04-14T04:07:32.562Z,1.70
2023-04-14T04:10:00.427Z,1.40
2023-04-14T04:12:28.894Z,1.40
2023-04-14T04:14:56.833Z,1.52
2023-04-14T04:17:25.626Z,1.33
2023-04-14T04:19:54.935Z,1.30
2023-04-14T04:22:27.262Z,1.38
2023-04-14T04:24:56.276Z,1.80
2023-04-14T04:27:28.013Z,1.38
2023-04-14T04:29:56.650Z,1.40
2023-04-14T04:32:24.429Z,1.20
2023-04-14T04:34:53.360Z,2.05
2023-04-14T04:37:21.723Z,2.50
2023-04-14T04:39:49.348Z,1.90
2023-04-14T04:42:17.132Z,2.40
2023-04-14T04:44:45.320Z,1.70
2023-04-14T04:47:13.563Z,1.85
2023-04-14T04:49:40.719Z,1.60
2023-04-14T04:52:07.850Z,1.77
2023-04-14T04:54:35.562Z,1.70
2023-04-14T04:57:02.683Z,1.63
2023-04-14T04:59:29.826Z,2.00
2023-04-14T05:01:57.128Z,1.50
2023-04-14T05:04:24.702Z,1.73
2023-04-14T05:06:52.223Z,1.70
2023-04-14T05:09:19.376Z,1.98
2023-04-14T05:11:46.506Z,2.97
2023-04-14T05:14:13.654Z,3.63
2023-04-14T05:16:41.143Z,2.97
2023-04-14T05:19:08.261Z,4.05
2023-04-14T05:21:35.681Z,4.03
2023-04-14T05:24:02.914Z,2.70
2023-04-14T05:26:51.765Z,2.60
2023-04-14T05:29:17.861Z,2.67
2023-04-14T05:31:45.146Z,2.80
2023-04-14T05:34:12.303Z,3.10
2023-04-14T05:36:39.478Z,1.90
2023-04-14T05:39:06.853Z,2.05
2023-04-14T05:41:33.955Z,2.45
2023-04-14T05:44:01.604Z,2.10
2023-04-14T05:46:29.339Z,2.00
2023-04-14T05:48:57.914Z,3.08
2023-04-14T05:51:25.237Z,6.63
2023-04-14T05:53:52.397Z,6.15
2023-04-14T05:56:19.557Z,5.97
2023-04-14T05:58:46.850Z,3.75
2023-04-14T06:01:14.061Z,2.90
2023-04-14T06:03:41.679Z,2.13
2023-04-14T06:06:09.176Z,2.28
2023-04-14T06:08:36.454Z,1.52
2023-04-14T06:11:04.251Z,1.55
2023-04-14T06:13:34.849Z,1.33
2023-04-14T06:16:03.656Z,1.70
2023-04-14T06:18:30.914Z,1.80
2023-04-14T06:20:58.063Z,1.58
2023-04-14T06:23:27.008Z,1.45
2023-04-14T06:25:55.263Z,2.25
2023-04-14T06:28:24.348Z,2.90
2023-04-14T06:30:51.618Z,2.30
2023-04-14T06:33:18.850Z,1.80
2023-04-14T06:35:46.462Z,2.28
2023-04-14T06:38:13.647Z,2.20
2023-04-14T06:40:41.064Z,1.70
2023-04-14T06:43:11.814Z,1.80
2023-04-14T06:45:40.038Z,1.98
2023-04-14T06:48:08.145Z,1.50
2023-04-14T06:50:35.682Z,2.08
2023-04-14T06:53:03.182Z,2.85
2023-04-14T06:55:30.644Z,1.60
2023-04-14T06:57:57.704Z,1.70
2023-04-14T07:00:24.987Z,1.80
2023-04-14T07:02:52.134Z,1.98
2023-04-14T07:05:19.964Z,1.77
2023-04-14T07:07:47.173Z,1.35
2023-04-14T07:10:14.654Z,1.60
2023-04-14T07:12:41.915Z,1.65
2023-04-14T07:15:09.668Z,1.80
2023-04-14T07:17:37.237Z,1.95
2023-04-14T07:20:05.567Z,1.50
2023-04-14T07:22:33.534Z,1.70
2023-04-14T07:25:00.794Z,1.67
2023-04-14T07:27:29.006Z,1.15
2023-04-14T07:29:56.447Z,1.10
2023-04-14T07:32:23.582Z,1.55
2023-04-14T07:34:51.564Z,1.27
2023-04-14T07:37:19.480Z,1.10
2023-04-14T07:39:47.010Z,1.17
2023-04-14T07:42:14.192Z,1.33
2023-04-14T07:44:41.501Z,1.38
2023-04-14T07:47:08.779Z,1.20
2023-04-14T07:49:36.845Z,1.02
2023-04-14T07:52:04.075Z,2.97
2023-04-14T07:54:32.058Z,1.40
2023-04-14T07:56:59.381Z,1.20
2023-04-14T07:59:26.725Z,1.20
2023-04-14T08:01:54.087Z,1.52
2023-04-14T08:04:21.518Z,1.10
2023-04-14T08:06:48.737Z,1.30
2023-04-14T08:09:15.902Z,1.25
2023-04-14T08:11:43.085Z,1.25
2023-04-14T08:14:10.831Z,1.00
2023-04-14T08:16:38.053Z,1.25
2023-04-14T08:19:05.528Z,1.17
2023-04-14T08:21:32.878Z,1.50
2023-04-14T08:24:00.135Z,1.40
2023-04-14T08:26:30.156Z,1.00
2023-04-14T08:28:57.308Z,0.82
2023-04-14T08:31:25.996Z,1.08
2023-04-14T08:33:53.408Z,1.10
2023-04-14T08:36:21.263Z,0.90
2023-04-14T08:38:48.524Z,1.05
2023-04-14T08:41:19.999Z,0.98
2023-04-14T08:43:47.248Z,0.93
2023-04-14T08:46:17.271Z,1.10
2023-04-14T08:48:50.087Z,0.95
2023-04-14T08:51:32.498Z,0.93
2023-04-14T08:54:01.923Z,1.13
2023-04-14T08:56:34.025Z,1.20
2023-04-14T08:59:02.139Z,0.65
2023-04-14T09:01:32.074Z,0.73
2023-04-14T09:04:02.012Z,0.80
2023-04-14T09:06:30.079Z,0.82
2023-04-14T09:08:58.584Z,0.90
2023-04-14T09:11:26.113Z,0.80
2023-04-14T09:13:54.209Z,0.73
2023-04-14T09:16:21.620Z,1.40
2023-04-14T09:18:49.972Z,0.90
2023-04-14T09:21:50.301Z,1.13
2023-04-14T09:24:06.386Z,1.00
2023-04-14T09:26:33.972Z,1.55
2023-04-14T09:29:01.482Z,1.45
2023-04-14T09:31:28.828Z,1.20
2023-04-14T09:33:56.110Z,1.50
2023-04-14T09:36:29.224Z,1.27
2023-04-14T09:38:57.632Z,1.52
2023-04-14T09:41:27.796Z,1.95
2023-04-14T09:43:55.053Z,1.95
2023-04-14T09:46:22.955Z,2.20
2023-04-14T09:48:52.521Z,3.05
2023-04-14T09:51:33.581Z,2.80
2023-04-14T09:54:05.579Z,1.73
2023-04-14T09:56:33.327Z,1.48
2023-04-14T09:59:02.981Z,1.98
2023-04-14T10:01:34.437Z,1.20
2023-04-14T10:04:03.072Z,1.40
2023-04-14T10:06:31.941Z,1.52
2023-04-14T10:09:00.131Z,1.20
2023-04-14T10:11:35.493Z,1.73
2023-04-14T10:14:05.404Z,0.90
2023-04-14T10:16:33.948Z,0.90
2023-04-14T10:19:02.471Z,2.55
2023-04-14T10:21:30.239Z,1.60
2023-04-14T10:23:58.033Z,1.45
2023-04-14T10:26:26.874Z,1.00
2023-04-14T10:28:55.876Z,1.63
2023-04-14T10:31:33.638Z,1.48
2023-04-14T10:34:09.467Z,1.10
2023-04-14T10:36:37.511Z,1.10
2023-04-14T10:39:06.315Z,0.90
2023-04-14T10:41:48.268Z,1.20
2023-04-14T10:44:31.966Z,0.80
2023-04-14T10:47:02.899Z,0.90
2023-04-14T10:49:35.591Z,1.10
2023-04-14T10:52:05.610Z,0.85
2023-04-14T10:54:53.686Z,0.80
2023-04-14T10:57:25.223Z,0.80
2023-04-14T10:59:57.351Z,1.00
2023-04-14T11:02:32.588Z,0.57
2023-04-14T11:05:04.690Z,0.88
2023-04-14T11:07:38.323Z,0.93
2023-04-14T11:10:17.458Z,0.85
2023-04-14T11:12:46.531Z,1.30
2023-04-14T11:15:15.015Z,0.70
2023-04-14T11:17:43.525Z,1.30
2023-04-14T11:20:22.546Z,1.20
2023-04-14T11:22:53.008Z,1.15
2023-04-14T11:25:24.445Z,0.68
2023-04-14T11:27:52.558Z,0.70
2023-04-14T11:30:21.163Z,0.85
2023-04-14T11:32:51.516Z,1.10
2023-04-14T11:35:19.865Z,1.50
2023-04-14T11:37:47.876Z,0.90
2023-04-14T11:40:16.427Z,0.70
2023-04-14T11:42:48.315Z,1.20
2023-04-14T11:45:16.390Z,1.13
2023-04-14T11:48:01.257Z,1.98
2023-04-14T11:50:32.627Z,2.33
2023-04-14T11:53:00.976Z,1.83
2023-04-14T11:55:29.524Z,1.30
2023-04-14T11:57:57.378Z,2.03
2023-04-14T12:00:25.115Z,3.10
2023-04-14T12:02:52.715Z,1.55
2023-04-14T12:05:23.004Z,0.70
2023-04-14T12:07:50.627Z,1.05
2023-04-14T12:10:18.616Z,0.93
2023-04-14T12:12:46.714Z,1.10
2023-04-14T12:15:14.002Z,1.10
2023-04-14T12:17:41.673Z,1.15
2023-04-14T12:20:16.228Z,1.50
2023-04-14T12:22:43.422Z,1.15
2023-04-14T12:25:12.920Z,0.90
2023-04-14T12:27:40.283Z,0.70
2023-04-14T12:30:09.922Z,1.05
2023-04-14T12:32:41.138Z,0.80
2023-04-14T12:35:09.315Z,0.88
2023-04-14T12:37:38.911Z,0.88
2023-04-14T12:40:07.288Z,0.98
2023-04-14T12:42:54.250Z,0.90
2023-04-14T12:45:21.491Z,0.70
2023-04-14T12:47:56.197Z,1.27
2023-04-14T12:50:28.358Z,0.95
2023-04-14T12:52:57.448Z,1.00
2023-04-14T12:55:25.912Z,1.20
2023-04-14T12:57:57.003Z,1.00
2023-04-14T13:00:28.915Z,1.60
2023-04-14T13:02:56.984Z,1.60
2023-04-14T13:05:24.646Z,1.50
2023-04-14T13:07:51.977Z,0.90
2023-04-14T13:10:19.316Z,0.90
2023-04-14T13:12:46.554Z,0.77
2023-04-14T13:16:00.270Z,0.77
2023-04-14T13:18:01.469Z,1.20
2023-04-14T13:20:30.693Z,1.20
2023-04-14T13:22:57.951Z,0.90
2023-04-14T13:25:25.194Z,1.30
2023-04-14T13:27:53.487Z,1.30
2023-04-14T13:30:21.048Z,1.00
2023-04-14T13:32:48.266Z,0.80
2023-04-14T13:35:16.050Z,1.05
2023-04-14T13:37:43.226Z,0.77
2023-04-14T13:40:10.829Z,0.88
2023-04-14T13:42:38.093Z,0.90
2023-04-14T13:45:06.540Z,1.10
2023-04-14T13:47:34.066Z,1.40
2023-04-14T13:50:01.859Z,1.50
2023-04-14T13:52:29.073Z,1.50
2023-04-14T13:54:56.845Z,1.80
2023-04-14T13:57:24.034Z,2.33
2023-04-14T13:59:51.346Z,2.58
2023-04-14T14:02:18.650Z,1.40
2023-04-14T14:04:45.904Z,1.45
2023-04-14T14:07:13.063Z,1.65
2023-04-14T14:09:40.260Z,0.90
2023-04-14T14:12:09.074Z,1.30
2023-04-14T14:14:36.181Z,1.10
2023-04-14T14:17:03.490Z,1.40
2023-04-14T14:19:30.750Z,1.80
2023-04-14T14:21:58.103Z,2.08
2023-04-14T14:24:25.315Z,1.45
2023-04-14T14:26:52.486Z,1.00
2023-04-14T14:29:19.826Z,1.30
2023-04-14T14:31:47.647Z,1.50
2023-04-14T14:34:15.141Z,1.77
2023-04-14T14:36:43.912Z,1.60
2023-04-14T14:39:11.378Z,1.48
2023-04-14T14:41:38.702Z,1.65
2023-04-14T14:44:06.257Z,2.72
2023-04-14T14:46:34.267Z,2.85
2023-04-14T14:49:01.503Z,2.22
2023-04-14T14:51:28.783Z,2.10
2023-04-14T14:54:08.786Z,2.08
2023-04-14T14:56:37.642Z,1.90
2023-04-14T14:59:04.950Z,2.10
2023-04-14T15:01:33.879Z,1.58
2023-04-14T15:04:01.279Z,1.55
2023-04-14T15:06:28.826Z,1.55
2023-04-14T15:08:56.200Z,1.30
2023-04-14T15:11:23.328Z,1.40
2023-04-14T15:13:51.361Z,1.65
2023-04-14T15:16:18.842Z,1.27
2023-04-14T15:18:46.296Z,1.23
2023-04-14T15:21:13.457Z,1.83
2023-04-14T15:23:43.823Z,1.55
2023-04-14T15:26:12.649Z,1.65
2023-04-14T15:28:40.617Z,1.30
2023-04-14T15:31:08.645Z,1.30
2023-04-14T15:33:36.695Z,1.63
2023-04-14T15:36:04.013Z,1.20
2023-04-14T15:38:32.363Z,1.40
2023-04-14T15:41:00.356Z,1.70
2023-04-14T15:43:28.235Z,1.35
2023-04-14T15:45:56.098Z,1.00
2023-04-14T15:48:23.276Z,1.48
2023-04-14T15:50:50.602Z,1.30
2023-04-14T15:53:17.698Z,1.40
2023-04-14T15:55:44.915Z,2.10
2023-04-14T15:58:12.162Z,2.35
2023-04-14T16:00:39.729Z,1.60
2023-04-14T16:03:07.149Z,1.70
2023-04-14T16:05:34.975Z,1.60
2023-04-14T16:08:02.690Z,1.75
2023-04-14T16:10:30.244Z,2.25
2023-04-14T16:12:57.485Z,2.20
2023-04-14T16:15:25.594Z,2.00
2023-04-14T16:17:53.218Z,1.67
2023-04-14T16:20:20.382Z,1.60
2023-04-14T16:22:49.837Z,2.08
2023-04-14T16:25:17.481Z,2.13
2023-04-14T16:27:45.042Z,1.90
2023-04-14T16:30:12.688Z,2.17
2023-04-14T16:32:40.522Z,2.05
2023-04-14T16:35:08.470Z,2.30
2023-04-14T16:37:36.079Z,1.92
2023-04-14T16:40:03.738Z,2.38
2023-04-14T16:42:30.823Z,2.47
2023-04-14T16:44:58.435Z,2.17
2023-04-14T16:47:26.117Z,2.50
2023-04-14T16:49:54.682Z,3.15
2023-04-14T16:52:23.409Z,2.63
2023-04-14T16:54:52.791Z,3.05
2023-04-14T16:57:21.887Z,3.08
2023-04-14T16:59:50.644Z,4.65
2023-04-14T17:02:18.187Z,3.17
2023-04-14T17:04:46.116Z,3.20
2023-04-14T17:07:13.440Z,3.70
2023-04-14T17:09:41.931Z,3.20
2023-04-14T17:12:10.085Z,3.50
2023-04-14T17:14:37.412Z,3.85
2023-04-14T17:17:04.740Z,4.00
2023-04-14T17:19:32.761Z,4.68
2023-04-14T17:22:01.567Z,3.55
2023-04-14T17:24:31.853Z,3.28
2023-04-14T17:27:01.009Z,3.55
2023-04-14T17:29:30.029Z,3.15
2023-04-14T17:31:58.160Z,3.00
2023-04-14T17:34:26.514Z,2.90
2023-04-14T17:36:54.631Z,3.50
2023-04-14T17:39:27.127Z,3.40
2023-04-14T17:41:56.965Z,18.30
2023-04-14T17:44:32.683Z,4.20
2023-04-14T17:47:02.492Z,5.25
2023-04-14T17:49:30.624Z,3.95
2023-04-14T17:52:00.630Z,2.50
2023-04-14T17:54:31.188Z,2.20
2023-04-14T17:56:59.082Z,2.38
2023-04-14T17:59:27.040Z,2.40
2023-04-14T18:01:54.917Z,5.05
2023-04-14T18:04:23.341Z,3.05
2023-04-14T18:06:52.724Z,2.53
2023-04-14T18:09:20.893Z,2.30
2023-04-14T18:11:48.589Z,3.55
2023-04-14T18:14:16.509Z,2.83
2023-04-14T18:16:44.408Z,3.15
2023-04-14T18:19:12.507Z,4.10
2023-04-14T18:21:40.646Z,3.83
2023-04-14T18:26:44.159Z,3.25
2023-04-14T18:29:12.938Z,3.72
2023-04-14T18:31:40.604Z,4.10
2023-04-14T18:34:10.824Z,4.18
2023-04-14T18:36:39.319Z,4.18
2023-04-14T18:39:07.863Z,4.47
2023-04-14T18:41:36.865Z,4.03
2023-04-14T18:44:07.257Z,4.68
2023-04-14T18:46:36.585Z,5.07
2023-04-14T18:49:07.513Z,5.03
2023-04-14T18:51:37.172Z,5.00
2023-04-14T18:54:12.198Z,5.10
2023-04-14T18:56:40.440Z,5.13
2023-04-14T18:59:09.766Z,5.15
2023-04-14T19:01:39.759Z,4.85
2023-04-14T19:04:09.080Z,4.47
2023-04-14T19:06:37.876Z,4.68
2023-04-14T19:09:06.165Z,4.95
2023-04-14T19:11:37.556Z,4.57
2023-04-14T19:14:06.398Z,5.50
2023-04-14T19:16:35.858Z,6.05
2023-04-14T19:19:04.119Z,5.38
2023-04-14T19:21:32.621Z,5.40
2023-04-14T19:24:00.631Z,6.28
2023-04-14T19:26:30.187Z,7.00
2023-04-14T19:28:59.343Z,5.55
2023-04-14T19:31:29.538Z,6.55
2023-04-14T19:33:58.793Z,6.97
2023-04-14T19:36:28.335Z,6.32
2023-04-14T19:38:56.740Z,6.18
2023-04-14T19:41:25.482Z,5.72
2023-04-14T19:43:52.998Z,8.40
2023-04-14T19:46:20.306Z,9.40
2023-04-14T19:48:49.184Z,8.20
2023-04-14T19:51:17.315Z,7.63
2023-04-14T19:53:48.008Z,7.32
2023-04-14T19:56:16.429Z,8.98
2023-04-14T19:58:45.063Z,7.60
2023-04-14T20:01:13.756Z,9.40
2023-04-14T20:04:07.633Z,8.38
2023-04-14T20:06:35.053Z,6.85
2023-04-14T20:09:04.537Z,7.00
2023-04-14T20:11:32.875Z,8.40
2023-04-14T20:14:01.016Z,7.28
2023-04-14T20:16:28.630Z,11.30
2023-04-14T20:18:57.455Z,8.60
2023-04-14T20:21:25.375Z,5.30
2023-04-14T20:23:52.960Z,6.05
2023-04-14T20:26:21.271Z,5.78
2023-04-14T20:28:49.473Z,5.65
2023-04-14T20:31:17.534Z,5.38
2023-04-14T20:33:46.314Z,3.60
2023-04-14T20:36:14.917Z,3.92
2023-04-14T20:38:43.062Z,4.70
2023-04-14T20:41:11.653Z,4.10
2023-04-14T20:43:40.122Z,3.67
2023-04-14T20:46:07.634Z,4.18
2023-04-14T20:48:35.431Z,3.85
2023-04-14T20:51:04.400Z,4.20
2023-04-14T20:53:31.833Z,4.25
2023-04-14T20:55:59.148Z,4.10
2023-04-14T20:58:27.023Z,4.18
2023-04-14T21:00:54.254Z,4.22
2023-04-14T21:03:22.048Z,4.05
2023-04-14T21:05:49.827Z,4.00
2023-04-14T21:08:18.839Z,5.13
2023-04-14T21:11:15.655Z,5.95
2023-04-14T21:15:28.296Z,5.38
2023-04-14T21:16:22.089Z,5.95
2023-04-14T21:18:49.658Z,6.07
2023-04-14T21:21:17.212Z,6.88
2023-04-14T21:23:44.432Z,4.78
2023-04-14T21:26:14.932Z,10.18
2023-04-14T21:28:42.444Z,5.75
2023-04-14T21:31:10.828Z,7.60
2023-04-14T21:33:39.728Z,4.43
2023-04-14T21:36:07.291Z,7.30
2023-04-14T21:38:34.618Z,4.75
2023-04-14T21:41:02.254Z,4.30
2023-04-14T21:43:29.383Z,3.60
2023-04-14T21:45:57.459Z,3.22
2023-04-14T21:48:24.812Z,2.83
2023-04-14T21:50:52.166Z,2.90
2023-04-14T21:53:19.516Z,2.80
2023-04-14T21:55:47.830Z,3.03
2023-04-14T21:58:35.158Z,2.85
2023-04-14T22:01:02.463Z,3.08
2023-04-14T22:03:29.783Z,3.50
2023-04-14T22:05:57.099Z,3.47
2023-04-14T22:08:24.290Z,3.67
2023-04-14T22:10:53.422Z,4.10
2023-04-14T22:13:21.106Z,4.10
2023-04-14T22:15:49.616Z,4.30
2023-04-14T22:18:17.612Z,4.30
2023-04-14T22:20:45.459Z,4.03
2023-04-14T22:23:13.567Z,4.07
2023-04-14T22:25:40.809Z,4.07
2023-04-14T22:28:07.953Z,4.20
2023-04-14T22:30:35.429Z,3.88
2023-04-14T22:33:02.953Z,4.00
2023-04-14T22:35:31.219Z,4.40
2023-04-14T22:37:58.415Z,4.18
2023-04-14T22:40:25.547Z,4.00
2023-04-14T22:42:52.733Z,4.40
2023-04-14T22:45:19.808Z,4.45
2023-04-14T22:47:47.632Z,4.90
2023-04-14T22:50:14.756Z,4.30
2023-04-14T22:52:41.912Z,4.20
2023-04-14T22:55:09.169Z,4.70
2023-04-14T22:57:36.328Z,4.88
2023-04-14T23:00:09.279Z,5.10
2023-04-14T23:02:36.965Z,5.05
2023-04-14T23:05:04.639Z,4.68
2023-04-14T23:07:32.219Z,4.50
2023-04-14T23:09:59.688Z,5.05
2023-04-14T23:12:26.901Z,4.50
2023-04-14T23:14:54.055Z,4.97
2023-04-14T23:17:21.439Z,4.75
2023-04-14T23:19:48.624Z,4.80
2023-04-14T23:22:16.827Z,5.03
2023-04-14T23:24:44.173Z,4.63
2023-04-14T23:27:11.581Z,4.28
2023-04-14T23:29:39.969Z,4.80
2023-04-14T23:32:11.039Z,5.07
2023-04-14T23:34:38.626Z,5.88
2023-04-14T23:37:07.052Z,3.88
2023-04-14T23:39:34.818Z,4.72
2023-04-14T23:42:02.568Z,4.18
2023-04-14T23:44:29.948Z,3.95
2023-04-14T23:46:57.653Z,5.95
2023-04-14T23:49:35.433Z,5.05
2023-04-14T23:52:05.242Z,4.38
2023-04-14T23:54:32.928Z,4.20
2023-04-14T23:57:00.133Z,3.92
2023-04-14T23:59:27.438Z,3.67
